createdAt,value
2022-08-22T00:02:28.363Z,99.99
2022-08-22T00:03:07.587Z,98.66
2022-08-22T00:05:00.957Z,99.76
2022-08-22T00:07:46.110Z,99.92
2022-08-22T00:10:24.926Z,99.95
2022-08-22T00:13:13.552Z,99.74
2022-08-22T00:15:46.823Z,99.50
2022-08-22T00:18:28.291Z,99.30
2022-08-22T00:21:31.272Z,99.08
2022-08-22T00:24:27.667Z,99.05
2022-08-22T00:27:20.316Z,99.01
2022-08-22T00:29:57.699Z,98.85
2022-08-22T00:32:35.387Z,99.01
2022-08-22T00:35:01.874Z,99.62
2022-08-22T00:37:43.220Z,99.29
2022-08-22T00:40:31.331Z,99.58
2022-08-22T00:43:19.725Z,99.60
2022-08-22T00:45:52.224Z,99.72
2022-08-22T00:48:49.550Z,99.56
2022-08-22T00:51:32.001Z,99.64
2022-08-22T00:54:04.517Z,99.54
2022-08-22T00:57:08.219Z,99.11
2022-08-22T00:59:34.701Z,98.88
2022-08-22T01:02:29.644Z,99.08
2022-08-22T01:05:11.354Z,98.74
2022-08-22T01:07:54.180Z,99.22
2022-08-22T01:10:45.036Z,98.98
2022-08-22T01:13:45.421Z,98.86
2022-08-22T01:16:48.529Z,99.29
2022-08-22T01:19:34.015Z,99.32
2022-08-22T01:22:35.486Z,99.29
2022-08-22T01:25:22.547Z,99.51
2022-08-22T01:28:20.181Z,99.49
2022-08-22T01:31:28.652Z,99.58
2022-08-22T01:34:13.069Z,99.45
2022-08-22T01:36:58.430Z,99.80
2022-08-22T01:39:34.288Z,100.00
2022-08-22T01:42:16.476Z,100.00
2022-08-22T01:44:58.004Z,100.00
2022-08-22T01:47:37.593Z,99.83
2022-08-22T01:50:22.810Z,99.84
2022-08-22T01:52:59.252Z,99.52
2022-08-22T01:55:38.690Z,99.40
2022-08-22T01:58:23.259Z,99.40
2022-08-22T02:01:28.696Z,99.35
2022-08-22T02:03:59.010Z,99.22
2022-08-22T02:06:48.133Z,99.24
2022-08-22T02:09:20.832Z,99.49
2022-08-22T02:11:56.046Z,99.95
2022-08-22T02:14:32.883Z,100.00
2022-08-22T02:17:25.779Z,100.00
2022-08-22T02:20:01.748Z,100.00
2022-08-22T02:22:44.399Z,100.00
2022-08-22T02:25:25.840Z,100.00
2022-08-22T02:27:55.119Z,100.00
2022-08-22T02:30:30.383Z,100.00
2022-08-22T02:33:26.696Z,100.00
2022-08-22T02:36:19.857Z,100.00
2022-08-22T02:38:54.620Z,100.00
2022-08-22T02:41:44.139Z,100.00
2022-08-22T02:44:28.272Z,100.00
2022-08-22T02:47:03.788Z,100.00
2022-08-22T02:50:02.765Z,100.00
2022-08-22T02:53:04.757Z,100.00
2022-08-22T02:55:50.322Z,100.00
2022-08-22T02:58:27.476Z,100.00
2022-08-22T03:01:02.849Z,100.00
2022-08-22T03:03:36.283Z,100.00
2022-08-22T03:06:09.072Z,100.00
2022-08-22T03:08:47.542Z,100.00
2022-08-22T03:11:30.065Z,100.00
2022-08-22T03:14:14.498Z,100.00
2022-08-22T03:16:55.250Z,100.00
2022-08-22T03:19:31.948Z,100.00
2022-08-22T03:22:03.736Z,100.00
2022-08-22T03:24:38.425Z,100.00
2022-08-22T03:27:15.207Z,100.00
2022-08-22T03:30:06.997Z,100.00
2022-08-22T03:32:59.225Z,100.00
2022-08-22T03:35:34.923Z,100.00
2022-08-22T03:38:23.690Z,100.00
2022-08-22T03:41:00.991Z,100.00
2022-08-22T03:43:52.332Z,100.00
2022-08-22T03:46:37.260Z,100.00
2022-08-22T03:49:35.828Z,100.00
2022-08-22T03:52:30.937Z,100.00
2022-08-22T03:55:15.038Z,100.00
2022-08-22T03:58:07.832Z,100.00
2022-08-22T04:01:14.825Z,100.00
2022-08-22T04:04:13.422Z,100.00
2022-08-22T04:07:28.575Z,100.00
2022-08-22T04:10:25.613Z,100.00
2022-08-22T04:13:03.392Z,100.00
2022-08-22T04:15:58.115Z,100.00
2022-08-22T04:18:24.597Z,100.00
2022-08-22T04:21:12.341Z,100.00
2022-08-22T04:23:58.573Z,100.00
2022-08-22T04:26:34.040Z,100.00
2022-08-22T04:29:14.627Z,100.00
2022-08-22T04:31:52.893Z,100.00
2022-08-22T04:34:30.764Z,100.00
2022-08-22T04:37:05.463Z,100.00
2022-08-22T04:39:42.099Z,100.00
2022-08-22T04:42:32.847Z,100.00
2022-08-22T04:45:15.484Z,100.00
2022-08-22T04:48:04.951Z,100.00
2022-08-22T04:50:37.998Z,100.00
2022-08-22T04:53:42.523Z,100.00
2022-08-22T04:56:12.011Z,100.00
2022-08-22T04:58:47.614Z,100.00
2022-08-22T05:01:18.879Z,100.00
2022-08-22T05:03:57.462Z,100.00
2022-08-22T05:06:28.658Z,100.00
2022-08-22T05:08:59.888Z,100.00
2022-08-22T05:11:27.796Z,100.00
2022-08-22T05:14:02.701Z,100.00
2022-08-22T05:16:34.634Z,100.00
2022-08-22T05:19:12.012Z,100.00
2022-08-22T05:21:48.043Z,100.00
2022-08-22T05:24:23.468Z,100.00
2022-08-22T05:26:59.190Z,100.00
2022-08-22T05:29:29.730Z,100.00
2022-08-22T05:32:04.181Z,100.00
2022-08-22T05:34:39.006Z,100.00
2022-08-22T05:37:17.800Z,100.00
2022-08-22T05:39:49.160Z,100.00
2022-08-22T05:42:23.251Z,100.00
2022-08-22T05:44:49.990Z,100.00
2022-08-22T05:47:35.267Z,100.00
2022-08-22T05:50:20.090Z,100.00
2022-08-22T05:53:24.890Z,100.00
2022-08-22T05:56:03.455Z,100.00
2022-08-22T05:58:35.846Z,100.00
2022-08-22T06:01:37.945Z,100.00
2022-08-22T06:04:13.700Z,100.00
2022-08-22T06:06:50.992Z,100.00
2022-08-22T06:09:44.581Z,100.00
2022-08-22T06:12:30.056Z,100.00
2022-08-22T06:14:56.830Z,100.00
2022-08-22T06:17:31.244Z,100.00
2022-08-22T06:20:00.196Z,100.00
2022-08-22T06:22:29.119Z,100.00
2022-08-22T06:24:58.754Z,100.00
2022-08-22T06:27:31.325Z,100.00
2022-08-22T06:30:01.498Z,100.00
2022-08-22T06:32:59.482Z,100.00
2022-08-22T06:35:50.926Z,100.00
2022-08-22T06:38:19.994Z,100.00
2022-08-22T06:40:47.092Z,100.00
2022-08-22T06:43:13.850Z,100.00
2022-08-22T06:45:41.593Z,100.00
2022-08-22T06:48:08.661Z,100.00
2022-08-22T06:50:41.993Z,100.00
2022-08-22T06:53:24.740Z,100.00
2022-08-22T06:55:55.168Z,100.00
2022-08-22T06:58:37.920Z,100.00
2022-08-22T07:01:12.941Z,100.00
2022-08-22T07:03:45.189Z,100.00
2022-08-22T07:06:18.265Z,100.00
2022-08-22T07:08:45.542Z,100.00
2022-08-22T07:11:21.920Z,100.00
2022-08-22T07:13:58.474Z,100.00
2022-08-22T07:16:31.155Z,100.00
2022-08-22T07:18:57.902Z,100.00
2022-08-22T07:21:32.866Z,100.00
2022-08-22T07:24:03.226Z,100.00
2022-08-22T07:27:12.717Z,100.00
2022-08-22T07:29:53.570Z,100.00
2022-08-22T07:32:35.144Z,100.00
2022-08-22T07:35:22.362Z,100.00
2022-08-22T07:38:22.327Z,100.00
2022-08-22T07:41:20.109Z,100.00
2022-08-22T07:43:57.666Z,100.00
2022-08-22T07:46:39.073Z,100.00
2022-08-22T07:49:21.871Z,100.00
2022-08-22T07:51:55.658Z,100.00
2022-08-22T07:54:41.624Z,100.00
2022-08-22T07:57:14.938Z,100.00
2022-08-22T07:59:53.411Z,100.00
2022-08-22T08:02:21.348Z,100.00
2022-08-22T08:04:53.866Z,99.73
2022-08-22T08:07:24.241Z,99.33
2022-08-22T08:09:59.634Z,99.25
2022-08-22T08:12:34.988Z,98.75
2022-08-22T08:15:04.250Z,98.81
2022-08-22T08:17:34.368Z,98.58
2022-08-22T08:20:08.740Z,98.54
2022-08-22T08:22:37.487Z,98.29
2022-08-22T08:25:05.970Z,98.18
2022-08-22T08:27:55.534Z,98.67
2022-08-22T08:30:38.649Z,98.11
2022-08-22T08:33:24.915Z,98.81
2022-08-22T08:36:04.477Z,98.37
2022-08-22T08:39:14.402Z,98.42
2022-08-22T08:41:58.926Z,97.81
2022-08-22T08:44:37.699Z,97.74
2022-08-22T08:47:16.334Z,97.82
2022-08-22T08:49:52.231Z,98.25
2022-08-22T08:52:31.280Z,98.05
2022-08-22T08:55:19.664Z,97.97
2022-08-22T08:58:26.367Z,98.09
2022-08-22T09:01:08.268Z,98.09
2022-08-22T09:04:19.702Z,97.93
2022-08-22T09:07:12.825Z,97.11
2022-08-22T09:10:11.360Z,95.69
2022-08-22T09:16:20.432Z,96.31
2022-08-22T09:18:52.591Z,96.26
2022-08-22T09:21:31.286Z,96.72
2022-08-22T09:24:09.740Z,96.73
2022-08-22T09:26:46.957Z,97.42
2022-08-22T09:29:32.421Z,97.21
2022-08-22T09:32:23.704Z,97.08
2022-08-22T09:35:14.688Z,96.45
2022-08-22T09:37:51.715Z,96.49
2022-08-22T09:40:16.062Z,96.07
2022-08-22T09:40:30.679Z,96.67
2022-08-22T09:43:29.549Z,96.99
2022-08-22T09:46:15.468Z,95.96
2022-08-22T09:48:52.934Z,96.27
2022-08-22T09:51:31.444Z,96.39
2022-08-22T09:54:07.506Z,96.17
2022-08-22T09:56:58.523Z,96.43
2022-08-22T09:59:43.312Z,96.16
2022-08-22T10:02:44.174Z,96.29
2022-08-22T10:05:40.270Z,96.14
2022-08-22T10:08:26.229Z,96.27
2022-08-22T10:10:59.437Z,96.59
2022-08-22T10:13:34.896Z,96.79
2022-08-22T10:16:04.851Z,96.71
2022-08-22T10:18:56.170Z,95.66
2022-08-22T10:21:27.490Z,96.71
2022-08-22T10:24:15.218Z,96.67
2022-08-22T10:27:07.570Z,97.60
2022-08-22T10:29:40.099Z,97.99
2022-08-22T10:32:32.368Z,98.02
2022-08-22T10:35:08.036Z,98.05
2022-08-22T10:37:50.259Z,97.77
2022-08-22T10:40:26.094Z,97.94
2022-08-22T10:43:00.338Z,97.24
2022-08-22T10:45:54.727Z,97.10
2022-08-22T10:48:26.735Z,97.49
2022-08-22T10:51:08.639Z,97.09
2022-08-22T10:54:00.086Z,96.15
2022-08-22T10:56:46.149Z,96.06
2022-08-22T10:59:53.074Z,96.16
2022-08-22T11:02:47.986Z,96.86
2022-08-22T11:05:27.418Z,97.11
2022-08-22T11:08:16.597Z,96.05
2022-08-22T11:11:01.625Z,96.66
2022-08-22T11:13:47.184Z,96.77
2022-08-22T11:16:46.868Z,96.98
2022-08-22T11:19:25.381Z,97.32
2022-08-22T11:22:28.332Z,96.97
2022-08-22T11:25:14.281Z,97.02
2022-08-22T11:28:14.968Z,96.44
2022-08-22T11:31:22.484Z,97.14
2022-08-22T11:34:03.696Z,97.48
2022-08-22T11:36:54.439Z,97.35
2022-08-22T11:39:28.452Z,97.42
2022-08-22T11:42:34.074Z,97.67
2022-08-22T11:45:05.010Z,97.67
2022-08-22T11:47:39.730Z,97.29
2022-08-22T11:50:25.637Z,97.19
2022-08-22T11:53:04.568Z,97.81
2022-08-22T11:56:08.744Z,97.08
2022-08-22T11:58:50.677Z,97.22
2022-08-22T12:01:22.044Z,97.50
2022-08-22T12:04:00.896Z,97.78
2022-08-22T12:06:45.404Z,97.68
2022-08-22T12:09:42.614Z,97.21
2022-08-22T12:12:21.378Z,96.79
2022-08-22T12:15:28.838Z,96.49
2022-08-22T12:18:21.540Z,96.30
2022-08-22T12:21:03.548Z,95.69
2022-08-22T12:23:55.851Z,96.21
2022-08-22T12:27:00.294Z,96.23
2022-08-22T12:29:33.775Z,95.93
2022-08-22T12:32:33.916Z,95.44
2022-08-22T12:35:16.002Z,94.73
2022-08-22T12:38:03.548Z,95.06
2022-08-22T12:41:28.459Z,95.22
2022-08-22T12:44:30.943Z,94.23
2022-08-22T12:47:25.399Z,93.29
2022-08-22T12:50:21.532Z,92.94
2022-08-22T12:53:10.192Z,92.60
2022-08-22T12:55:51.568Z,91.92
2022-08-22T12:58:35.716Z,91.71
2022-08-22T13:01:07.063Z,92.21
2022-08-22T13:03:41.091Z,92.33
2022-08-22T13:06:35.335Z,92.95
2022-08-22T13:09:18.608Z,92.79
2022-08-22T13:11:49.623Z,89.59
2022-08-22T13:14:25.643Z,89.98
2022-08-22T13:17:00.839Z,89.02
2022-08-22T13:19:59.273Z,87.69
2022-08-22T13:22:29.599Z,87.35
2022-08-22T13:25:27.329Z,86.28
2022-08-22T13:28:01.286Z,85.90
2022-08-22T13:30:42.316Z,86.15
2022-08-22T13:33:14.420Z,85.74
2022-08-22T13:35:52.761Z,85.19
2022-08-22T13:38:27.245Z,85.83
2022-08-22T13:40:57.938Z,85.46
2022-08-22T13:43:30.125Z,85.46
2022-08-22T13:46:03.223Z,85.86
2022-08-22T13:48:47.568Z,85.89
2022-08-22T13:51:25.430Z,85.42
2022-08-22T13:54:10.815Z,84.99
2022-08-22T13:57:17.532Z,84.22
2022-08-22T14:00:06.117Z,84.36
2022-08-22T14:02:44.939Z,84.31
2022-08-22T14:05:19.903Z,85.64
2022-08-22T14:08:18.446Z,86.36
2022-08-22T14:10:55.047Z,86.65
2022-08-22T14:13:37.660Z,86.29
2022-08-22T14:16:10.455Z,86.13
2022-08-22T14:19:09.120Z,85.84
2022-08-22T14:21:51.144Z,86.41
2022-08-22T14:24:25.868Z,86.53
2022-08-22T14:27:11.038Z,86.17
2022-08-22T14:30:12.787Z,86.23
2022-08-22T14:33:11.923Z,86.77
2022-08-22T14:35:45.239Z,87.31
2022-08-22T14:38:53.392Z,88.51
2022-08-22T14:41:52.941Z,87.70
2022-08-22T14:44:55.790Z,88.50
2022-08-22T14:47:55.418Z,88.23
2022-08-22T14:50:42.265Z,88.05
2022-08-22T14:53:25.171Z,88.49
2022-08-22T14:55:57.378Z,87.75
2022-08-22T14:58:27.575Z,88.05
2022-08-22T15:00:56.337Z,88.57
2022-08-22T15:03:22.983Z,89.06
2022-08-22T15:05:55.041Z,88.35
2022-08-22T15:08:27.481Z,88.67
2022-08-22T15:11:28.033Z,89.10
2022-08-22T15:14:12.571Z,88.41
2022-08-22T15:16:45.307Z,88.14
2022-08-22T15:19:32.786Z,88.70
2022-08-22T15:22:11.205Z,88.56
2022-08-22T15:24:46.471Z,89.38
2022-08-22T15:27:19.142Z,88.66
2022-08-22T15:29:58.610Z,88.85
2022-08-22T15:32:28.736Z,88.69
2022-08-22T15:35:14.650Z,89.52
2022-08-22T15:38:01.565Z,89.44
2022-08-22T15:40:33.879Z,89.55
2022-08-22T15:43:19.927Z,90.23
2022-08-22T15:45:48.947Z,90.29
2022-08-22T15:48:54.513Z,90.35
2022-08-22T15:51:46.303Z,90.21
2022-08-22T15:54:24.753Z,90.28
2022-08-22T15:56:52.005Z,89.87
2022-08-22T15:59:43.858Z,90.26
2022-08-22T16:02:25.723Z,90.37
2022-08-22T16:05:13.638Z,90.23
2022-08-22T16:07:43.180Z,90.77
2022-08-22T16:10:21.880Z,90.70
2022-08-22T16:13:06.905Z,90.64
2022-08-22T16:15:51.297Z,90.93
2022-08-22T16:18:44.808Z,90.91
2022-08-22T16:21:17.647Z,91.23
2022-08-22T16:23:50.219Z,91.41
2022-08-22T16:26:21.320Z,91.75
2022-08-22T16:28:58.850Z,92.05
2022-08-22T16:31:34.877Z,92.40
2022-08-22T16:34:20.292Z,92.08
2022-08-22T16:36:47.232Z,92.15
2022-08-22T16:39:32.788Z,92.39
2022-08-22T16:42:14.881Z,92.62
2022-08-22T16:44:44.256Z,92.72
2022-08-22T16:47:12.986Z,92.96
2022-08-22T16:50:22.718Z,92.96
2022-08-22T16:53:28.333Z,92.91
2022-08-22T16:56:29.462Z,93.23
2022-08-22T16:59:23.428Z,92.82
2022-08-22T17:02:05.776Z,92.99
2022-08-22T17:04:32.224Z,92.82
2022-08-22T17:07:11.507Z,93.30
2022-08-22T17:09:52.855Z,93.43
2022-08-22T17:12:33.250Z,93.40
2022-08-22T17:15:29.458Z,94.47
2022-08-22T17:18:10.702Z,94.41
2022-08-22T17:21:10.049Z,94.29
2022-08-22T17:23:55.319Z,94.18
2022-08-22T17:26:39.798Z,94.07
2022-08-22T17:29:58.299Z,94.07
2022-08-22T17:32:44.796Z,94.16
2022-08-22T17:35:38.844Z,94.29
2022-08-22T17:38:27.549Z,94.40
2022-08-22T17:41:03.131Z,93.43
2022-08-22T17:43:56.608Z,88.72
2022-08-22T17:46:47.071Z,85.42
2022-08-22T17:49:41.396Z,84.86
2022-08-22T17:52:15.934Z,85.85
2022-08-22T17:54:52.144Z,87.53
2022-08-22T17:57:36.956Z,90.90
2022-08-22T18:00:44.253Z,89.50
2022-08-22T18:03:29.770Z,91.67
2022-08-22T18:06:05.975Z,91.94
2022-08-22T18:11:44.904Z,93.05
2022-08-22T18:14:35.524Z,92.72
2022-08-22T18:17:25.875Z,92.23
2022-08-22T18:20:03.584Z,92.10
2022-08-22T18:22:36.105Z,92.03
2022-08-22T18:25:20.023Z,91.33
2022-08-22T18:27:51.788Z,91.30
2022-08-22T18:30:23.304Z,91.45
2022-08-22T18:33:07.235Z,90.99
2022-08-22T18:35:43.953Z,91.07
2022-08-22T18:38:42.530Z,90.96
2022-08-22T18:41:20.758Z,91.02
2022-08-22T18:43:48.322Z,91.18
2022-08-22T18:46:31.732Z,91.26
2022-08-22T18:49:19.065Z,91.40
2022-08-22T18:52:05.604Z,91.52
2022-08-22T18:54:32.075Z,92.81
2022-08-22T18:57:24.588Z,94.13
2022-08-22T19:00:16.649Z,95.09
2022-08-22T19:02:55.968Z,94.92
2022-08-22T19:05:25.817Z,94.77
2022-08-22T19:08:28.851Z,94.17
2022-08-22T19:11:04.344Z,93.81
2022-08-22T19:14:03.117Z,94.63
2022-08-22T19:16:48.194Z,94.92
2022-08-22T19:19:22.791Z,95.31
2022-08-22T19:22:19.917Z,95.17
2022-08-22T19:25:01.799Z,95.65
2022-08-22T19:27:32.173Z,96.06
2022-08-22T19:30:20.693Z,96.54
2022-08-22T19:32:47.223Z,96.95
2022-08-22T19:35:20.033Z,97.25
2022-08-22T19:40:48.387Z,96.60
2022-08-22T19:43:30.303Z,96.43
2022-08-22T19:45:59.825Z,96.16
2022-08-22T19:48:31.546Z,95.79
2022-08-22T19:51:28.719Z,96.24
2022-08-22T19:54:00.990Z,97.08
2022-08-22T19:56:41.116Z,97.38
2022-08-22T19:59:38.889Z,97.44
2022-08-22T20:02:47.867Z,98.43
2022-08-22T20:05:31.985Z,98.08
2022-08-22T20:08:37.584Z,98.10
2022-08-22T20:11:16.564Z,98.20
2022-08-22T20:13:43.924Z,98.72
2022-08-22T20:16:19.129Z,98.47
2022-08-22T20:19:09.332Z,97.79
2022-08-22T20:21:40.732Z,97.97
2022-08-22T20:24:13.747Z,97.72
2022-08-22T20:26:57.675Z,98.54
2022-08-22T20:29:34.488Z,99.63
2022-08-22T20:32:02.900Z,100.00
2022-08-22T20:34:34.200Z,100.00
2022-08-22T20:37:27.010Z,100.00
2022-08-22T20:40:55.039Z,100.00
2022-08-22T20:43:23.063Z,100.00
2022-08-22T20:46:24.736Z,100.00
2022-08-22T20:48:54.483Z,100.00
2022-08-22T20:51:25.017Z,100.00
2022-08-22T20:53:53.784Z,100.00
2022-08-22T20:56:52.705Z,100.00
2022-08-22T20:59:32.202Z,100.00
2022-08-22T21:02:19.508Z,100.00
2022-08-22T21:05:00.284Z,100.00
2022-08-22T21:07:31.398Z,100.00
2022-08-22T21:10:34.241Z,99.65
2022-08-22T21:13:12.054Z,99.10
2022-08-22T21:15:48.512Z,98.89
2022-08-22T21:18:34.426Z,98.59
2022-08-22T21:21:31.247Z,98.41
2022-08-22T21:24:01.786Z,98.28
2022-08-22T21:26:28.255Z,98.14
2022-08-22T21:29:20.829Z,98.25
2022-08-22T21:31:59.400Z,98.41
2022-08-22T21:34:40.812Z,99.40
2022-08-22T21:37:12.080Z,99.81
2022-08-22T21:39:48.056Z,99.20
2022-08-22T21:42:37.490Z,99.11
2022-08-22T21:45:09.963Z,99.43
2022-08-22T21:47:39.500Z,98.89
2022-08-22T21:50:08.712Z,98.55
2022-08-22T21:52:38.710Z,98.50
2022-08-22T21:55:27.984Z,99.19
2022-08-22T21:58:11.999Z,100.00
2022-08-22T22:00:54.879Z,99.92
2022-08-22T22:03:30.358Z,99.78
2022-08-22T22:05:59.516Z,100.00
2022-08-22T22:08:29.194Z,99.61
2022-08-22T22:11:06.209Z,99.13
2022-08-22T22:13:35.358Z,98.74
2022-08-22T22:16:02.288Z,98.46
2022-08-22T22:18:33.691Z,98.39
2022-08-22T22:21:00.733Z,98.50
2022-08-22T22:23:28.103Z,98.41
2022-08-22T22:25:57.510Z,98.77
2022-08-22T22:28:30.820Z,99.33
2022-08-22T22:30:57.511Z,99.44
2022-08-22T22:33:28.036Z,98.83
2022-08-22T22:35:57.300Z,98.79
2022-08-22T22:38:24.436Z,98.55
2022-08-22T22:40:52.284Z,98.34
2022-08-22T22:43:18.898Z,98.35
2022-08-22T22:45:45.537Z,98.34
2022-08-22T22:48:13.460Z,98.40
2022-08-22T22:50:52.141Z,98.78
2022-08-22T22:53:20.060Z,98.96
2022-08-22T22:55:59.790Z,98.32
2022-08-22T22:58:27.148Z,98.31
2022-08-22T23:00:53.778Z,97.95
2022-08-22T23:03:20.383Z,97.95
2022-08-22T23:05:47.080Z,97.89
2022-08-22T23:08:13.706Z,97.94
2022-08-22T23:10:40.240Z,97.97
2022-08-22T23:13:06.840Z,97.16
2022-08-22T23:15:33.418Z,97.02
2022-08-22T23:18:00.068Z,97.20
2022-08-22T23:20:26.906Z,97.26
2022-08-22T23:22:53.542Z,97.41
2022-08-22T23:25:20.224Z,97.64
2022-08-22T23:27:48.702Z,97.94
2022-08-22T23:30:25.432Z,98.19
2022-08-22T23:32:52.012Z,98.63
2022-08-22T23:35:18.610Z,99.26
2022-08-22T23:37:45.222Z,99.95
2022-08-22T23:40:11.844Z,100.00
2022-08-22T23:42:38.443Z,100.00
2022-08-22T23:45:05.736Z,100.00
2022-08-22T23:47:32.257Z,100.00
2022-08-22T23:49:58.800Z,100.00
2022-08-22T23:52:30.940Z,100.00
2022-08-22T23:54:57.756Z,100.00
2022-08-22T23:57:26.458Z,100.00
2022-08-22T23:59:57.927Z,100.00
